sensor_id;sensor_type;location;lat;lon;timestamp;pressure;altitude;pressure_sealevel;temperature;humidity
61345;BME280;47216;42.656;23.232;2022-09-09T00:02:19;94169.25;;;16.76;77.31
61345;BME280;47216;42.656;23.232;2022-09-09T00:04:54;94162.56;;;16.60;77.98
61345;BME280;47216;42.656;23.232;2022-09-09T00:07:36;94161.31;;;16.52;78.58
61345;BME280;47216;42.656;23.232;2022-09-09T00:10:15;94159.31;;;16.39;79.15
61345;BME280;47216;42.656;23.232;2022-09-09T00:12:51;94157.88;;;16.57;78.82
61345;BME280;47216;42.656;23.232;2022-09-09T00:15:24;94163.47;;;16.74;78.11
61345;BME280;47216;42.656;23.232;2022-09-09T00:17:56;94157.59;;;16.88;77.37
61345;BME280;47216;42.656;23.232;2022-09-09T00:20:32;94140.72;;;16.89;77.13
61345;BME280;47216;42.656;23.232;2022-09-09T00:23:08;94145.84;;;16.75;77.21
61345;BME280;47216;42.656;23.232;2022-09-09T00:25:42;94133.91;;;16.88;76.57
61345;BME280;47216;42.656;23.232;2022-09-09T00:28:16;94129.06;;;16.95;76.54
61345;BME280;47216;42.656;23.232;2022-09-09T00:30:46;94116.97;;;16.94;76.41
61345;BME280;47216;42.656;23.232;2022-09-09T00:33:16;94120.22;;;16.86;76.38
61345;BME280;47216;42.656;23.232;2022-09-09T00:35:47;94121.16;;;16.66;76.95
61345;BME280;47216;42.656;23.232;2022-09-09T00:38:18;94121.59;;;16.49;77.50
61345;BME280;47216;42.656;23.232;2022-09-09T00:40:50;94124.28;;;16.44;77.75
61345;BME280;47216;42.656;23.232;2022-09-09T00:43:26;94123.19;;;16.50;77.71
61345;BME280;47216;42.656;23.232;2022-09-09T00:49:02;94119.69;;;16.25;78.56
61345;BME280;47216;42.656;23.232;2022-09-09T00:51:39;94128.25;;;16.07;79.87
61345;BME280;47216;42.656;23.232;2022-09-09T00:54:27;94124.44;;;16.23;79.25
61345;BME280;47216;42.656;23.232;2022-09-09T00:57:07;94127.53;;;16.30;78.77
61345;BME280;47216;42.656;23.232;2022-09-09T00:59:45;94132.28;;;16.28;78.25
61345;BME280;47216;42.656;23.232;2022-09-09T01:02:18;94131.81;;;16.21;78.23
61345;BME280;47216;42.656;23.232;2022-09-09T01:04:48;94126.00;;;16.24;78.21
61345;BME280;47216;42.656;23.232;2022-09-09T01:07:18;94120.22;;;16.27;78.21
61345;BME280;47216;42.656;23.232;2022-09-09T01:09:52;94127.19;;;16.08;78.88
61345;BME280;47216;42.656;23.232;2022-09-09T01:12:25;94131.44;;;16.04;79.02
61345;BME280;47216;42.656;23.232;2022-09-09T01:15:03;94121.78;;;15.89;79.79
61345;BME280;47216;42.656;23.232;2022-09-09T01:17:33;94129.97;;;15.82;80.04
61345;BME280;47216;42.656;23.232;2022-09-09T01:20:09;94129.06;;;15.58;81.35
61345;BME280;47216;42.656;23.232;2022-09-09T01:22:45;94120.38;;;15.62;81.47
61345;BME280;47216;42.656;23.232;2022-09-09T01:25:29;94129.06;;;15.58;81.65
61345;BME280;47216;42.656;23.232;2022-09-09T01:28:00;94124.56;;;15.63;81.27
61345;BME280;47216;42.656;23.232;2022-09-09T01:30:28;94119.81;;;15.70;81.34
61345;BME280;47216;42.656;23.232;2022-09-09T01:32:56;94119.00;;;15.75;80.74
61345;BME280;47216;42.656;23.232;2022-09-09T01:35:45;94127.31;;;15.87;80.73
61345;BME280;47216;42.656;23.232;2022-09-09T01:38:16;94126.19;;;16.04;80.28
61345;BME280;47216;42.656;23.232;2022-09-09T01:40:44;94135.53;;;16.20;79.71
61345;BME280;47216;42.656;23.232;2022-09-09T01:43:13;94128.63;;;16.29;78.80
61345;BME280;47216;42.656;23.232;2022-09-09T01:45:41;94137.56;;;16.28;78.18
61345;BME280;47216;42.656;23.232;2022-09-09T01:48:09;94135.38;;;16.35;78.19
61345;BME280;47216;42.656;23.232;2022-09-09T01:50:36;94136.38;;;16.45;77.83
61345;BME280;47216;42.656;23.232;2022-09-09T01:53:03;94144.25;;;16.45;76.99
61345;BME280;47216;42.656;23.232;2022-09-09T01:55:32;94147.91;;;16.49;76.89
61345;BME280;47216;42.656;23.232;2022-09-09T01:58:20;94146.88;;;16.50;76.67
61345;BME280;47216;42.656;23.232;2022-09-09T02:00:55;94134.84;;;16.38;76.81
61345;BME280;47216;42.656;23.232;2022-09-09T02:03:26;94138.97;;;16.15;77.20
61345;BME280;47216;42.656;23.232;2022-09-09T02:06:00;94138.72;;;16.12;77.33
61345;BME280;47216;42.656;23.232;2022-09-09T02:08:34;94128.63;;;15.90;78.21
61345;BME280;47216;42.656;23.232;2022-09-09T02:11:07;94132.69;;;15.67;79.59
61345;BME280;47216;42.656;23.232;2022-09-09T02:13:37;94129.09;;;15.47;80.67
61345;BME280;47216;42.656;23.232;2022-09-09T02:16:07;94130.88;;;15.62;80.15
61345;BME280;47216;42.656;23.232;2022-09-09T02:18:41;94119.56;;;15.62;80.47
61345;BME280;47216;42.656;23.232;2022-09-09T02:21:11;94119.25;;;15.68;80.11
61345;BME280;47216;42.656;23.232;2022-09-09T02:23:41;94123.75;;;15.68;79.94
61345;BME280;47216;42.656;23.232;2022-09-09T02:26:09;94124.25;;;15.70;79.55
61345;BME280;47216;42.656;23.232;2022-09-09T02:28:40;94130.03;;;15.77;79.29
61345;BME280;47216;42.656;23.232;2022-09-09T02:31:07;94129.28;;;15.71;79.30
61345;BME280;47216;42.656;23.232;2022-09-09T02:33:38;94137.13;;;15.77;79.00
61345;BME280;47216;42.656;23.232;2022-09-09T02:36:08;94138.47;;;15.69;78.90
61345;BME280;47216;42.656;23.232;2022-09-09T02:38:40;94140.28;;;15.68;78.88
61345;BME280;47216;42.656;23.232;2022-09-09T02:41:09;94143.22;;;15.67;79.01
61345;BME280;47216;42.656;23.232;2022-09-09T02:43:35;94150.03;;;15.73;78.62
61345;BME280;47216;42.656;23.232;2022-09-09T02:46:10;94149.50;;;15.71;78.78
61345;BME280;47216;42.656;23.232;2022-09-09T02:48:47;94142.13;;;15.68;79.25
61345;BME280;47216;42.656;23.232;2022-09-09T02:51:24;94145.84;;;15.67;78.94
61345;BME280;47216;42.656;23.232;2022-09-09T02:53:59;94141.09;;;15.69;79.18
61345;BME280;47216;42.656;23.232;2022-09-09T02:56:32;94142.13;;;15.73;78.95
61345;BME280;47216;42.656;23.232;2022-09-09T02:59:03;94136.88;;;15.73;78.57
61345;BME280;47216;42.656;23.232;2022-09-09T03:01:31;94146.88;;;15.66;79.01
61345;BME280;47216;42.656;23.232;2022-09-09T03:03:58;94149.00;;;15.69;79.04
61345;BME280;47216;42.656;23.232;2022-09-09T03:06:25;94140.06;;;15.65;79.01
61345;BME280;47216;42.656;23.232;2022-09-09T03:08:53;94144.28;;;15.61;79.21
61345;BME280;47216;42.656;23.232;2022-09-09T03:11:20;94136.16;;;15.52;79.48
61345;BME280;47216;42.656;23.232;2022-09-09T03:13:47;94138.53;;;15.53;79.34
61345;BME280;47216;42.656;23.232;2022-09-09T03:16:14;94133.78;;;15.61;78.95
61345;BME280;47216;42.656;23.232;2022-09-09T03:18:42;94136.91;;;15.63;79.28
61345;BME280;47216;42.656;23.232;2022-09-09T03:21:11;94135.09;;;15.58;79.26
61345;BME280;47216;42.656;23.232;2022-09-09T03:23:38;94134.25;;;15.73;78.79
61345;BME280;47216;42.656;23.232;2022-09-09T03:26:05;94125.06;;;15.65;79.12
61345;BME280;47216;42.656;23.232;2022-09-09T03:28:31;94129.81;;;15.63;79.49
61345;BME280;47216;42.656;23.232;2022-09-09T03:30:59;94124.50;;;15.68;79.16
61345;BME280;47216;42.656;23.232;2022-09-09T03:33:26;94126.84;;;15.80;78.68
61345;BME280;47216;42.656;23.232;2022-09-09T03:35:56;94127.81;;;15.94;78.35
61345;BME280;47216;42.656;23.232;2022-09-09T03:38:23;94134.63;;;15.95;77.97
61345;BME280;47216;42.656;23.232;2022-09-09T03:40:50;94126.19;;;16.04;77.78
61345;BME280;47216;42.656;23.232;2022-09-09T03:43:20;94127.16;;;16.13;77.23
61345;BME280;47216;42.656;23.232;2022-09-09T03:45:47;94128.00;;;16.08;76.89
61345;BME280;47216;42.656;23.232;2022-09-09T03:48:14;94133.56;;;15.96;77.30
61345;BME280;47216;42.656;23.232;2022-09-09T03:50:44;94138.31;;;16.00;77.17
61345;BME280;47216;42.656;23.232;2022-09-09T03:53:13;94133.00;;;16.05;76.99
61345;BME280;47216;42.656;23.232;2022-09-09T03:55:43;94138.81;;;16.02;77.02
61345;BME280;47216;42.656;23.232;2022-09-09T03:58:11;94134.13;;;15.93;77.11
61345;BME280;47216;42.656;23.232;2022-09-09T04:00:38;94131.56;;;15.83;77.17
61345;BME280;47216;42.656;23.232;2022-09-09T04:03:07;94141.28;;;15.83;77.55
61345;BME280;47216;42.656;23.232;2022-09-09T04:05:34;94135.81;;;15.79;78.00
61345;BME280;47216;42.656;23.232;2022-09-09T04:08:05;94146.63;;;15.72;78.34
61345;BME280;47216;42.656;23.232;2022-09-09T04:10:33;94140.78;;;15.81;78.29
61345;BME280;47216;42.656;23.232;2022-09-09T04:13:01;94142.31;;;15.87;78.19
61345;BME280;47216;42.656;23.232;2022-09-09T04:15:28;94135.13;;;16.03;77.83
61345;BME280;47216;42.656;23.232;2022-09-09T04:17:55;94132.44;;;16.08;77.33
61345;BME280;47216;42.656;23.232;2022-09-09T04:20:22;94138.72;;;16.12;77.38
61345;BME280;47216;42.656;23.232;2022-09-09T04:22:49;94140.63;;;16.06;77.58
61345;BME280;47216;42.656;23.232;2022-09-09T04:25:16;94133.09;;;15.89;78.03
61345;BME280;47216;42.656;23.232;2022-09-09T04:27:44;94135.03;;;15.68;78.87
61345;BME280;47216;42.656;23.232;2022-09-09T04:30:11;94141.63;;;15.66;79.66
61345;BME280;47216;42.656;23.232;2022-09-09T04:32:38;94143.66;;;15.84;79.07
61345;BME280;47216;42.656;23.232;2022-09-09T04:35:05;94143.59;;;15.94;79.04
61345;BME280;47216;42.656;23.232;2022-09-09T04:37:32;94154.59;;;16.02;78.80
61345;BME280;47216;42.656;23.232;2022-09-09T04:39:59;94150.03;;;16.17;78.30
61345;BME280;47216;42.656;23.232;2022-09-09T04:42:27;94160.84;;;16.11;78.11
61345;BME280;47216;42.656;23.232;2022-09-09T04:44:55;94163.19;;;16.12;78.17
61345;BME280;47216;42.656;23.232;2022-09-09T04:47:22;94147.63;;;16.21;78.45
61345;BME280;47216;42.656;23.232;2022-09-09T04:49:49;94143.84;;;16.32;78.04
61345;BME280;47216;42.656;23.232;2022-09-09T04:52:17;94134.41;;;16.31;78.37
61345;BME280;47216;42.656;23.232;2022-09-09T04:54:44;94121.75;;;16.28;78.47
61345;BME280;47216;42.656;23.232;2022-09-09T04:57:11;94136.22;;;16.31;78.73
61345;BME280;47216;42.656;23.232;2022-09-09T04:59:37;94134.34;;;16.36;78.92
61345;BME280;47216;42.656;23.232;2022-09-09T05:02:06;94116.91;;;16.46;78.82
61345;BME280;47216;42.656;23.232;2022-09-09T05:04:33;94111.34;;;16.47;78.89
61345;BME280;47216;42.656;23.232;2022-09-09T05:07:00;94116.28;;;16.54;78.76
61345;BME280;47216;42.656;23.232;2022-09-09T05:09:27;94110.69;;;16.60;78.96
61345;BME280;47216;42.656;23.232;2022-09-09T05:11:54;94116.13;;;16.69;78.83
61345;BME280;47216;42.656;23.232;2022-09-09T05:14:21;94118.66;;;16.85;78.57
61345;BME280;47216;42.656;23.232;2022-09-09T05:16:48;94113.50;;;16.98;78.12
61345;BME280;47216;42.656;23.232;2022-09-09T05:19:16;94107.84;;;17.10;77.57
61345;BME280;47216;42.656;23.232;2022-09-09T05:21:45;94096.91;;;17.22;77.09
61345;BME280;47216;42.656;23.232;2022-09-09T05:24:12;94097.78;;;17.36;76.93
61345;BME280;47216;42.656;23.232;2022-09-09T05:26:38;94106.09;;;17.43;76.81
61345;BME280;47216;42.656;23.232;2022-09-09T05:29:05;94114.19;;;17.52;76.24
61345;BME280;47216;42.656;23.232;2022-09-09T05:31:33;94112.97;;;17.63;75.50
61345;BME280;47216;42.656;23.232;2022-09-09T05:34:00;94109.13;;;17.75;74.75
61345;BME280;47216;42.656;23.232;2022-09-09T05:36:28;94105.00;;;17.88;74.29
61345;BME280;47216;42.656;23.232;2022-09-09T05:38:55;94112.78;;;17.98;73.99
61345;BME280;47216;42.656;23.232;2022-09-09T05:41:22;94122.41;;;18.08;73.82
61345;BME280;47216;42.656;23.232;2022-09-09T05:43:49;94127.50;;;18.18;73.39
61345;BME280;47216;42.656;23.232;2022-09-09T05:46:17;94124.22;;;18.26;73.35
61345;BME280;47216;42.656;23.232;2022-09-09T05:48:45;94130.91;;;18.37;72.32
61345;BME280;47216;42.656;23.232;2022-09-09T05:51:15;94120.28;;;18.42;71.87
61345;BME280;47216;42.656;23.232;2022-09-09T05:53:44;94118.53;;;18.52;72.27
61345;BME280;47216;42.656;23.232;2022-09-09T05:56:13;94118.94;;;18.59;72.08
61345;BME280;47216;42.656;23.232;2022-09-09T05:58:40;94118.28;;;18.67;72.03
61345;BME280;47216;42.656;23.232;2022-09-09T06:01:10;94125.53;;;18.75;71.84
61345;BME280;47216;42.656;23.232;2022-09-09T06:03:40;94132.00;;;18.83;71.73
61345;BME280;47216;42.656;23.232;2022-09-09T06:06:09;94135.66;;;18.87;70.89
61345;BME280;47216;42.656;23.232;2022-09-09T06:08:37;94135.75;;;18.96;70.77
61345;BME280;47216;42.656;23.232;2022-09-09T06:11:07;94137.69;;;19.04;70.99
61345;BME280;47216;42.656;23.232;2022-09-09T06:13:36;94131.25;;;19.10;69.95
61345;BME280;47216;42.656;23.232;2022-09-09T06:16:05;94133.31;;;19.13;69.59
61345;BME280;47216;42.656;23.232;2022-09-09T06:18:33;94129.50;;;19.19;69.43
61345;BME280;47216;42.656;23.232;2022-09-09T06:21:01;94130.66;;;19.27;69.21
61345;BME280;47216;42.656;23.232;2022-09-09T06:23:30;94117.16;;;19.28;68.04
61345;BME280;47216;42.656;23.232;2022-09-09T06:26:04;94134.97;;;19.37;67.89
61345;BME280;47216;42.656;23.232;2022-09-09T06:28:33;94130.06;;;19.44;67.91
61345;BME280;47216;42.656;23.232;2022-09-09T06:31:02;94124.06;;;19.52;67.47
61345;BME280;47216;42.656;23.232;2022-09-09T06:33:31;94118.09;;;19.60;67.71
61345;BME280;47216;42.656;23.232;2022-09-09T06:36:00;94122.91;;;19.72;67.67
61345;BME280;47216;42.656;23.232;2022-09-09T06:38:29;94121.41;;;19.80;67.18
61345;BME280;47216;42.656;23.232;2022-09-09T06:40:57;94126.13;;;19.83;67.03
61345;BME280;47216;42.656;23.232;2022-09-09T06:43:24;94124.00;;;19.93;66.96
61345;BME280;47216;42.656;23.232;2022-09-09T06:45:57;94118.03;;;20.02;67.21
61345;BME280;47216;42.656;23.232;2022-09-09T06:48:25;94132.28;;;20.14;65.71
61345;BME280;47216;42.656;23.232;2022-09-09T06:51:00;94136.31;;;20.12;65.64
61345;BME280;47216;42.656;23.232;2022-09-09T06:53:27;94144.44;;;20.15;65.73
61345;BME280;47216;42.656;23.232;2022-09-09T06:55:54;94142.66;;;20.25;65.28
61345;BME280;47216;42.656;23.232;2022-09-09T06:58:21;94140.97;;;20.29;65.46
61345;BME280;47216;42.656;23.232;2022-09-09T07:00:48;94141.00;;;20.38;65.37
61345;BME280;47216;42.656;23.232;2022-09-09T07:03:16;94141.22;;;20.41;65.35
61345;BME280;47216;42.656;23.232;2022-09-09T07:05:43;94141.56;;;20.48;65.72
61345;BME280;47216;42.656;23.232;2022-09-09T07:08:10;94144.09;;;20.53;65.56
61345;BME280;47216;42.656;23.232;2022-09-09T07:10:37;94142.91;;;20.60;65.50
61345;BME280;47216;42.656;23.232;2022-09-09T07:13:04;94127.66;;;20.65;65.38
61345;BME280;47216;42.656;23.232;2022-09-09T07:15:31;94133.97;;;20.78;64.84
61345;BME280;47216;42.656;23.232;2022-09-09T07:18:01;94136.47;;;20.83;63.68
61345;BME280;47216;42.656;23.232;2022-09-09T07:20:29;94120.59;;;20.83;63.64
61345;BME280;47216;42.656;23.232;2022-09-09T07:22:56;94122.50;;;20.91;63.87
61345;BME280;47216;42.656;23.232;2022-09-09T07:25:24;94117.53;;;20.98;64.52
61345;BME280;47216;42.656;23.232;2022-09-09T07:27:52;94126.22;;;21.22;63.15
61345;BME280;47216;42.656;23.232;2022-09-09T07:30:18;94113.56;;;21.27;63.48
61345;BME280;47216;42.656;23.232;2022-09-09T07:32:45;94115.00;;;21.33;62.79
61345;BME280;47216;42.656;23.232;2022-09-09T07:35:12;94113.13;;;21.34;61.82
61345;BME280;47216;42.656;23.232;2022-09-09T07:37:40;94109.28;;;21.49;62.11
61345;BME280;47216;42.656;23.232;2022-09-09T07:40:08;94115.22;;;21.46;61.94
61345;BME280;47216;42.656;23.232;2022-09-09T07:42:35;94125.56;;;21.56;62.50
61345;BME280;47216;42.656;23.232;2022-09-09T07:45:03;94121.03;;;21.65;62.49
61345;BME280;47216;42.656;23.232;2022-09-09T07:47:31;94118.25;;;21.79;62.10
61345;BME280;47216;42.656;23.232;2022-09-09T07:49:58;94122.78;;;21.96;60.68
61345;BME280;47216;42.656;23.232;2022-09-09T07:52:25;94125.59;;;22.08;60.49
61345;BME280;47216;42.656;23.232;2022-09-09T07:54:54;94119.34;;;22.04;60.80
61345;BME280;47216;42.656;23.232;2022-09-09T07:57:21;94132.63;;;22.13;61.03
61345;BME280;47216;42.656;23.232;2022-09-09T07:59:48;94126.53;;;22.12;60.53
61345;BME280;47216;42.656;23.232;2022-09-09T08:02:15;94125.72;;;22.20;59.88
61345;BME280;47216;42.656;23.232;2022-09-09T08:04:42;94126.09;;;22.28;59.52
61345;BME280;47216;42.656;23.232;2022-09-09T08:07:09;94126.88;;;22.37;60.07
61345;BME280;47216;42.656;23.232;2022-09-09T08:09:36;94124.81;;;22.42;59.19
61345;BME280;47216;42.656;23.232;2022-09-09T08:12:08;94128.06;;;22.48;59.63
61345;BME280;47216;42.656;23.232;2022-09-09T08:14:34;94122.75;;;22.48;60.46
61345;BME280;47216;42.656;23.232;2022-09-09T08:17:03;94123.88;;;22.56;60.40
61345;BME280;47216;42.656;23.232;2022-09-09T08:19:30;94131.03;;;22.64;59.76
61345;BME280;47216;42.656;23.232;2022-09-09T08:21:59;94124.28;;;22.66;59.95
61345;BME280;47216;42.656;23.232;2022-09-09T08:24:27;94126.19;;;22.66;59.56
61345;BME280;47216;42.656;23.232;2022-09-09T08:26:54;94119.91;;;22.71;58.87
61345;BME280;47216;42.656;23.232;2022-09-09T08:29:23;94119.13;;;22.70;58.99
61345;BME280;47216;42.656;23.232;2022-09-09T08:31:52;94121.00;;;22.78;58.63
61345;BME280;47216;42.656;23.232;2022-09-09T08:34:19;94121.63;;;22.75;58.13
61345;BME280;47216;42.656;23.232;2022-09-09T08:36:48;94122.56;;;22.79;58.52
61345;BME280;47216;42.656;23.232;2022-09-09T08:39:16;94119.59;;;22.81;58.31
61345;BME280;47216;42.656;23.232;2022-09-09T08:44:55;94116.25;;;22.93;59.10
61345;BME280;47216;42.656;23.232;2022-09-09T08:47:35;94109.84;;;23.02;58.27
61345;BME280;47216;42.656;23.232;2022-09-09T08:50:15;94116.50;;;23.17;57.37
61345;BME280;47216;42.656;23.232;2022-09-09T08:52:51;94106.81;;;23.42;56.41
61345;BME280;47216;42.656;23.232;2022-09-09T08:55:27;94109.53;;;23.34;57.35
61345;BME280;47216;42.656;23.232;2022-09-09T08:57:58;94106.28;;;23.28;56.63
61345;BME280;47216;42.656;23.232;2022-09-09T09:00:33;94106.56;;;23.35;56.19
61345;BME280;47216;42.656;23.232;2022-09-09T09:03:09;94106.09;;;23.33;56.60
61345;BME280;47216;42.656;23.232;2022-09-09T09:05:46;94106.81;;;23.42;56.03
61345;BME280;47216;42.656;23.232;2022-09-09T09:08:20;94109.84;;;23.62;56.41
61345;BME280;47216;42.656;23.232;2022-09-09T09:10:54;94104.13;;;23.72;55.51
61345;BME280;47216;42.656;23.232;2022-09-09T09:13:26;94106.47;;;23.82;55.10
61345;BME280;47216;42.656;23.232;2022-09-09T09:16:01;94105.72;;;23.73;54.74
61345;BME280;47216;42.656;23.232;2022-09-09T09:18:29;94109.63;;;23.76;55.06
61345;BME280;47216;42.656;23.232;2022-09-09T09:21:03;94106.72;;;23.89;55.12
61345;BME280;47216;42.656;23.232;2022-09-09T09:23:40;94100.94;;;23.87;54.02
61345;BME280;47216;42.656;23.232;2022-09-09T09:26:09;94101.84;;;23.92;54.29
61345;BME280;47216;42.656;23.232;2022-09-09T09:28:37;94110.94;;;23.90;53.90
61345;BME280;47216;42.656;23.232;2022-09-09T09:31:09;94113.41;;;23.96;53.92
61345;BME280;47216;42.656;23.232;2022-09-09T09:33:45;94104.94;;;23.94;54.58
61345;BME280;47216;42.656;23.232;2022-09-09T09:36:13;94102.22;;;24.02;54.68
61345;BME280;47216;42.656;23.232;2022-09-09T09:38:53;94095.47;;;24.05;54.80
61345;BME280;47216;42.656;23.232;2022-09-09T09:41:35;94090.53;;;24.16;55.21
61345;BME280;47216;42.656;23.232;2022-09-09T09:44:04;94084.88;;;24.17;55.09
61345;BME280;47216;42.656;23.232;2022-09-09T09:46:34;94085.66;;;24.18;54.71
61345;BME280;47216;42.656;23.232;2022-09-09T09:49:03;94081.56;;;24.20;54.65
61345;BME280;47216;42.656;23.232;2022-09-09T09:51:32;94085.38;;;24.31;53.60
61345;BME280;47216;42.656;23.232;2022-09-09T09:54:11;94080.34;;;24.30;54.45
61345;BME280;47216;42.656;23.232;2022-09-09T09:56:42;94086.00;;;24.28;53.70
61345;BME280;47216;42.656;23.232;2022-09-09T09:59:20;94080.25;;;24.26;54.60
61345;BME280;47216;42.656;23.232;2022-09-09T10:01:49;94076.00;;;24.25;53.33
61345;BME280;47216;42.656;23.232;2022-09-09T10:04:18;94089.34;;;24.25;54.37
61345;BME280;47216;42.656;23.232;2022-09-09T10:06:48;94086.22;;;24.23;54.77
61345;BME280;47216;42.656;23.232;2022-09-09T10:09:22;94090.78;;;24.23;54.41
61345;BME280;47216;42.656;23.232;2022-09-09T10:11:55;94092.22;;;24.20;54.62
61345;BME280;47216;42.656;23.232;2022-09-09T10:14:30;94100.19;;;24.20;54.90
61345;BME280;47216;42.656;23.232;2022-09-09T10:17:12;94102.97;;;24.24;55.55
61345;BME280;47216;42.656;23.232;2022-09-09T10:19:50;94103.53;;;24.17;55.62
61345;BME280;47216;42.656;23.232;2022-09-09T10:22:26;94100.78;;;24.05;54.11
61345;BME280;47216;42.656;23.232;2022-09-09T10:25:24;94105.94;;;24.10;54.44
61345;BME280;47216;42.656;23.232;2022-09-09T10:28:12;94103.28;;;24.10;56.96
61345;BME280;47216;42.656;23.232;2022-09-09T10:30:50;94099.94;;;24.13;57.20
61345;BME280;47216;42.656;23.232;2022-09-09T10:33:30;94105.59;;;24.11;57.54
61345;BME280;47216;42.656;23.232;2022-09-09T10:36:05;94102.47;;;24.09;56.48
61345;BME280;47216;42.656;23.232;2022-09-09T10:38:39;94108.78;;;24.05;57.92
61345;BME280;47216;42.656;23.232;2022-09-09T10:41:16;94108.47;;;24.06;58.39
61345;BME280;47216;42.656;23.232;2022-09-09T10:46:51;94106.25;;;23.87;56.43
61345;BME280;47216;42.656;23.232;2022-09-09T10:49:31;94111.59;;;23.87;57.54
61345;BME280;47216;42.656;23.232;2022-09-09T10:52:09;94110.22;;;23.81;56.85
61345;BME280;47216;42.656;23.232;2022-09-09T10:54:48;94102.38;;;23.85;57.64
61345;BME280;47216;42.656;23.232;2022-09-09T10:57:24;94109.19;;;23.95;58.17
61345;BME280;47216;42.656;23.232;2022-09-09T10:59:55;94109.13;;;23.82;58.40
61345;BME280;47216;42.656;23.232;2022-09-09T11:02:27;94105.16;;;23.88;57.53
61345;BME280;47216;42.656;23.232;2022-09-09T11:04:59;94112.91;;;23.73;57.77
61345;BME280;47216;42.656;23.232;2022-09-09T11:07:34;94107.66;;;23.64;57.40
61345;BME280;47216;42.656;23.232;2022-09-09T11:10:13;94107.91;;;23.71;57.93
61345;BME280;47216;42.656;23.232;2022-09-09T11:12:44;94105.72;;;23.73;57.74
61345;BME280;47216;42.656;23.232;2022-09-09T11:15:17;94098.91;;;23.84;57.00
61345;BME280;47216;42.656;23.232;2022-09-09T11:17:48;94097.25;;;24.01;58.33
61345;BME280;47216;42.656;23.232;2022-09-09T11:20:18;94098.38;;;24.12;57.15
61345;BME280;47216;42.656;23.232;2022-09-09T11:22:48;94091.03;;;24.09;57.18
61345;BME280;47216;42.656;23.232;2022-09-09T11:25:18;94081.81;;;24.06;56.40
61345;BME280;47216;42.656;23.232;2022-09-09T11:27:57;94080.28;;;24.05;56.75
61345;BME280;47216;42.656;23.232;2022-09-09T11:30:33;94075.47;;;23.99;56.83
61345;BME280;47216;42.656;23.232;2022-09-09T11:33:18;94058.25;;;23.96;56.61
61345;BME280;47216;42.656;23.232;2022-09-09T11:36:13;94060.25;;;23.99;57.52
61345;BME280;47216;42.656;23.232;2022-09-09T11:38:46;94061.81;;;24.00;58.28
61345;BME280;47216;42.656;23.232;2022-09-09T11:41:14;94051.66;;;23.94;58.15
61345;BME280;47216;42.656;23.232;2022-09-09T11:43:44;94029.34;;;23.86;57.43
61345;BME280;47216;42.656;23.232;2022-09-09T11:46:12;94012.28;;;23.87;58.22
61345;BME280;47216;42.656;23.232;2022-09-09T11:48:41;94011.28;;;23.92;58.15
61345;BME280;47216;42.656;23.232;2022-09-09T11:51:25;94015.03;;;23.90;58.04
61345;BME280;47216;42.656;23.232;2022-09-09T11:53:54;94016.56;;;24.13;58.13
61345;BME280;47216;42.656;23.232;2022-09-09T11:56:27;94017.69;;;24.24;58.04
61345;BME280;47216;42.656;23.232;2022-09-09T11:59:01;94029.63;;;24.39;57.31
61345;BME280;47216;42.656;23.232;2022-09-09T12:01:37;94027.25;;;24.58;56.33
61345;BME280;47216;42.656;23.232;2022-09-09T12:04:32;94019.28;;;24.70;55.63
61345;BME280;47216;42.656;23.232;2022-09-09T12:07:03;94002.06;;;24.80;55.88
61345;BME280;47216;42.656;23.232;2022-09-09T12:09:45;94010.28;;;24.75;56.53
61345;BME280;47216;42.656;23.232;2022-09-09T12:12:38;93988.38;;;24.82;54.54
61345;BME280;47216;42.656;23.232;2022-09-09T12:15:22;93999.06;;;24.82;53.71
61345;BME280;47216;42.656;23.232;2022-09-09T12:17:50;94008.28;;;24.84;54.05
61345;BME280;47216;42.656;23.232;2022-09-09T12:20:20;93990.84;;;24.87;54.93
61345;BME280;47216;42.656;23.232;2022-09-09T12:22:59;94000.94;;;24.93;54.08
61345;BME280;47216;42.656;23.232;2022-09-09T12:25:37;93981.91;;;24.95;53.88
61345;BME280;47216;42.656;23.232;2022-09-09T12:28:15;93985.03;;;25.09;54.24
61345;BME280;47216;42.656;23.232;2022-09-09T12:30:49;93978.03;;;25.17;52.84
61345;BME280;47216;42.656;23.232;2022-09-09T12:33:19;93986.50;;;25.19;53.46
61345;BME280;47216;42.656;23.232;2022-09-09T12:35:53;93989.81;;;24.91;53.31
61345;BME280;47216;42.656;23.232;2022-09-09T12:38:27;93991.94;;;24.86;53.46
61345;BME280;47216;42.656;23.232;2022-09-09T12:40:57;93996.47;;;24.61;53.48
61345;BME280;47216;42.656;23.232;2022-09-09T12:43:27;93992.94;;;24.57;53.18
61345;BME280;47216;42.656;23.232;2022-09-09T12:45:57;93982.09;;;24.41;54.69
61345;BME280;47216;42.656;23.232;2022-09-09T12:48:31;93980.06;;;24.38;54.20
61345;BME280;47216;42.656;23.232;2022-09-09T12:50:59;93984.72;;;24.49;54.31
61345;BME280;47216;42.656;23.232;2022-09-09T12:53:31;93980.69;;;24.56;55.10
61345;BME280;47216;42.656;23.232;2022-09-09T12:56:01;93973.47;;;24.56;55.09
61345;BME280;47216;42.656;23.232;2022-09-09T12:58:30;93972.47;;;24.48;56.01
61345;BME280;47216;42.656;23.232;2022-09-09T13:01:00;93965.66;;;24.39;55.91
61345;BME280;47216;42.656;23.232;2022-09-09T13:03:31;93963.91;;;24.43;56.76
61345;BME280;47216;42.656;23.232;2022-09-09T13:06:09;93964.53;;;24.40;55.84
61345;BME280;47216;42.656;23.232;2022-09-09T13:08:38;93967.19;;;24.40;56.45
61345;BME280;47216;42.656;23.232;2022-09-09T13:11:09;93957.59;;;24.47;56.11
61345;BME280;47216;42.656;23.232;2022-09-09T13:13:40;93974.59;;;24.55;56.16
61345;BME280;47216;42.656;23.232;2022-09-09T13:16:22;93959.59;;;24.50;56.35
61345;BME280;47216;42.656;23.232;2022-09-09T13:18:50;93957.91;;;24.58;56.10
61345;BME280;47216;42.656;23.232;2022-09-09T13:21:18;93942.16;;;24.53;55.29